Time;durP1;ratioP1;P1;durP2;ratioP2;P2;SDS_P1;SDS_P2;PMS_P1;PMS_P2;Temp;Humidity;BMP_temperature;BMP_pressure;BME280_temperature;BME280_humidity;BME280_pressure;Samples;Min_cycle;Max_cycle;Signal;HPM_P1;HPM_P2
2023/07/23 00:25:02;;;;;;;5.93;5.27;;;14.50;90.70;;;;;;4685937;29;20629;-87
2023/07/23 00:49:54;;;;;;;7.80;5.47;;;14.00;94.60;;;;;;4596199;30;20857;-85
2023/07/23 01:10:34;;;;;;;7.43;6.03;;;13.90;95.00;;;;;;4620777;30;20240;-87
2023/07/23 01:30:24;;;;;;;7.73;5.97;;;13.40;99.90;;;;;;4640722;29;20780;-88
2023/07/23 01:50:56;;;;;;;7.53;6.50;;;12.80;99.90;;;;;;4693153;29;20649;-87
2023/07/23 02:11:34;;;;;;;7.70;6.90;;;12.60;99.90;;;;;;4704756;29;20246;-85
2023/07/23 02:41:39;;;;;;;9.33;7.07;;;11.90;99.90;;;;;;4715135;29;20671;-87
2023/07/23 03:07:17;;;;;;;8.93;8.03;;;12.00;99.90;;;;;;4680146;29;20225;-87
2023/07/23 03:37:09;;;;;;;7.47;6.77;;;12.30;99.90;;;;;;4716419;29;20548;-86
2023/07/23 04:23:24;;;;;;;8.43;7.13;;;13.60;99.90;;;;;;4666559;30;20203;-84
2023/07/23 04:48:41;;;;;;;6.50;5.90;;;15.20;98.80;;;;;;4574441;30;20223;-86
2023/07/23 05:18:34;;;;;;;5.67;5.00;;;18.30;80.50;;;;;;4533927;30;20576;-88
2023/07/23 05:44:29;;;;;;;7.13;4.87;;;19.70;72.20;;;;;;4663414;29;20254;-85
2023/07/23 06:09:25;;;;;;;4.97;4.47;;;19.90;68.70;;;;;;4571118;30;20612;-85
2023/07/23 07:15:57;;;;;;;4.38;3.97;;;22.60;56.60;;;;;;4518348;30;20233;-84
2023/07/23 07:36:15;;;;;;;4.32;3.65;;;23.60;55.10;;;;;;4629569;30;20212;-86
2023/07/23 07:40:34;;;;;;;3.85;3.50;;;23.60;54.50;;;;;;4638070;30;20219;-88
2023/07/23 08:01:35;;;;;;;3.88;3.20;;;24.00;51.00;;;;;;4696247;29;20259;-85
2023/07/23 08:26:51;;;;;;;3.42;3.08;;;24.70;48.20;;;;;;4684378;29;20859;-82
2023/07/23 08:47:13;;;;;;;3.60;3.20;;;25.30;47.70;;;;;;4552469;30;20321;-87
2023/07/23 09:07:42;;;;;;;3.53;3.08;;;25.90;47.30;;;;;;4544340;30;20216;-84
2023/07/23 09:11:53;;;;;;;5.47;3.45;;;25.90;47.40;;;;;;4515414;30;20277;-85
2023/07/23 09:42:56;;;;;;;3.72;3.38;;;26.00;47.30;;;;;;4743131;29;20224;-83
2023/07/23 10:13:05;;;;;;;3.88;3.58;;;26.90;47.50;;;;;;4585373;30;21211;-85
2023/07/23 10:33:45;;;;;;;3.95;3.17;;;27.30;45.70;;;;;;4511138;31;20394;-84
2023/07/23 11:03:33;;;;;;;5.97;3.45;;;28.10;46.10;;;;;;4608095;30;20411;-88
2023/07/23 11:28:57;;;;;;;3.50;3.20;;;26.20;45.30;;;;;;4659060;29;20230;-89
2023/07/23 11:54:53;;;;;;;4.07;3.67;;;25.30;46.30;;;;;;4782848;29;20420;-85
2023/07/23 12:29:45;;;;;;;6.82;4.00;;;25.00;49.40;;;;;;4688867;29;20499;-83
2023/07/23 13:08:50;;;;;;;4.85;3.95;;;28.00;47.60;;;;;;5909257;24;20187;-85
2023/07/23 13:39:15;;;;;;;4.20;3.80;;;27.70;46.10;;;;;;5726737;24;20927;-82
2023/07/23 14:19:52;;;;;;;3.97;3.58;;;27.60;45.80;;;;;;5941491;23;20159;-82
2023/07/23 14:50:13;;;;;;;4.93;3.85;;;28.80;45.10;;;;;;5813589;24;20399;-85
2023/07/23 16:16:36;;;;;;;4.05;3.70;;;27.50;45.60;;;;;;6012177;23;20519;-88
2023/07/23 16:42:04;;;;;;;5.07;3.58;;;28.00;45.30;;;;;;5840894;24;20509;-85
2023/07/23 17:06:45;;;;;;;3.75;3.20;;;27.20;45.90;;;;;;5680020;24;20253;-87
2023/07/23 17:27:30;;;;;;;3.92;3.35;;;26.30;46.90;;;;;;5713650;24;20238;-86
2023/07/23 17:47:44;;;;;;;4.25;3.88;;;25.30;49.70;;;;;;5684202;24;20584;-85
2023/07/23 18:13:22;;;;;;;4.25;3.80;;;24.20;51.90;;;;;;5851383;24;20187;-86
2023/07/23 18:33:19;;;;;;;4.75;3.90;;;23.30;55.50;;;;;;5685218;24;20211;-83
2023/07/23 18:58:59;;;;;;;5.35;4.10;;;22.00;78.60;;;;;;5728314;24;20185;-84
2023/07/23 19:24:16;;;;;;;9.40;5.07;;;21.10;85.90;;;;;;5750216;24;20217;-85
2023/07/23 19:54:07;;;;;;;7.50;6.10;;;21.30;84.20;;;;;;5895387;23;20272;-87
2023/07/23 20:19:49;;;;;;;8.70;6.40;;;21.00;87.90;;;;;;5845997;24;20248;-85
2023/07/23 20:39:49;;;;;;;9.77;6.30;;;20.70;96.60;;;;;;5769359;24;20967;-86
2023/07/23 21:05:30;;;;;;;8.90;6.20;;;19.80;96.30;;;;;;5742677;24;20175;-83
2023/07/23 21:26:06;;;;;;;7.27;6.57;;;20.10;95.70;;;;;;5958076;23;20165;-86
2023/07/23 21:51:02;;;;;;;9.10;7.00;;;20.20;96.20;;;;;;5901456;23;20173;-83
2023/07/23 22:11:23;;;;;;;7.53;6.47;;;19.90;97.00;;;;;;5745042;24;20318;-86
2023/07/23 22:31:39;;;;;;;8.03;6.47;;;20.50;91.90;;;;;;5754712;24;20563;-84
2023/07/23 22:52:13;;;;;;;7.80;7.00;;;20.40;94.70;;;;;;5871630;24;20306;-86
2023/07/23 23:27:50;;;;;;;7.10;6.40;;;20.00;98.60;;;;;;5983411;23;20747;-83
2023/07/23 23:32:10;;;;;;;9.13;6.10;;;20.00;96.50;;;;;;5993786;23;20215;-86
2023/07/23 23:52:57;;;;;;;6.00;5.33;;;20.50;90.10;;;;;;5848901;24;20218;-84
